Time;durP1;ratioP1;P1;durP2;ratioP2;P2;SDS_P1;SDS_P2;PMS_P1;PMS_P2;Temp;Humidity;BMP_temperature;BMP_pressure;BME280_temperature;BME280_humidity;BME280_pressure;Samples;Min_cycle;Max_cycle;Signal;HPM_P1;HPM_P2
2022/06/29 00:00:28;;;;;;;;;;;14.90;87.20;;;;;;4996753;28;19921;-72
2022/06/29 00:02:55;;;;;;;;;;;15.00;86.90;;;;;;5015244;28;19928;-72
2022/06/29 00:05:24;;;;;;;;;;;14.90;87.40;;;;;;5015139;28;19921;-72
2022/06/29 00:07:53;;;;;;;;;;;14.90;87.30;;;;;;5013739;28;19921;-72
2022/06/29 00:10:21;;;;;;;;;;;15.00;87.60;;;;;;4998067;28;19921;-72
2022/06/29 00:12:49;;;;;;;;;;;14.90;87.40;;;;;;5018610;28;19940;-72
2022/06/29 00:15:17;;;;;;;;;;;14.90;87.70;;;;;;5017404;28;19921;-72
2022/06/29 00:17:45;;;;;;;;;;;14.90;88.00;;;;;;5018536;28;19929;-72
2022/06/29 00:20:13;;;;;;;;;;;14.90;87.70;;;;;;5017485;28;19929;-72
2022/06/29 00:22:41;;;;;;;;;;;15.00;88.00;;;;;;4985145;28;19921;-72
2022/06/29 00:25:09;;;;;;;;;;;15.00;88.10;;;;;;5018311;28;19928;-72
2022/06/29 00:27:37;;;;;;;;;;;15.00;88.20;;;;;;5017228;28;19944;-72
2022/06/29 00:30:06;;;;;;;;;;;16.30;88.90;;;;;;5001287;28;19921;-72
2022/06/29 00:32:33;;;;;;;;;;;15.10;87.90;;;;;;5018210;28;19922;-72
2022/06/29 00:35:00;;;;;;;;;;;15.10;88.30;;;;;;4999936;28;19921;-72
2022/06/29 00:37:28;;;;;;;;;;;15.00;88.60;;;;;;5018548;28;19921;-72
2022/06/29 00:39:55;;;;;;;;;;;15.10;88.90;;;;;;5017084;28;19931;-72
2022/06/29 00:42:23;;;;;;;;;;;15.10;88.90;;;;;;5018056;28;19928;-73
2022/06/29 00:44:50;;;;;;;;;;;15.00;88.80;;;;;;5018029;28;19921;-72
2022/06/29 00:47:22;;;;;;;;;;;15.10;89.10;;;;;;5017113;28;19921;-72
2022/06/29 00:49:49;;;;;;;;;;;15.10;89.10;;;;;;5017994;28;19983;-72
2022/06/29 00:52:19;;;;;;;;;;;15.10;89.40;;;;;;5018020;28;20264;-72
2022/06/29 00:54:51;;;;;;;;;;;15.00;89.60;;;;;;4999912;28;19921;-72
2022/06/29 00:57:25;;;;;;;;;;;15.00;90.20;;;;;;5018170;28;20362;-72
2022/06/29 00:59:54;;;;;;;;;;;15.00;90.20;;;;;;5016750;28;19922;-72
2022/06/29 01:02:22;;;;;;;;;;;15.00;90.50;;;;;;5017711;28;20332;-72
2022/06/29 01:04:50;;;;;;;;;;;15.00;90.50;;;;;;5018003;28;19928;-73
2022/06/29 01:07:19;;;;;;;;;;;14.90;90.60;;;;;;5016460;28;19922;-72
2022/06/29 01:09:47;;;;;;;;;;;14.90;90.80;;;;;;5017843;28;19932;-72
2022/06/29 01:12:15;;;;;;;;;;;14.90;90.90;;;;;;5000383;28;19933;-72
2022/06/29 01:14:47;;;;;;;;;;;14.90;91.10;;;;;;5016198;28;19925;-72
2022/06/29 01:17:16;;;;;;;;;;;14.90;91.00;;;;;;5017306;28;20339;-72
2022/06/29 01:19:44;;;;;;;;;;;14.90;91.40;;;;;;5016394;28;19921;-72
2022/06/29 01:22:18;;;;;;;;;;;14.80;91.30;;;;;;5016906;28;19921;-72
2022/06/29 01:24:46;;;;;;;;;;;14.80;91.80;;;;;;5000073;28;19921;-72
2022/06/29 01:27:14;;;;;;;;;;;14.70;91.70;;;;;;4999181;28;19932;-72
2022/06/29 01:29:42;;;;;;;;;;;14.70;92.00;;;;;;5000534;28;19921;-75
2022/06/29 01:32:12;;;;;;;;;;;14.70;92.10;;;;;;5017401;28;19928;-72
2022/06/29 01:34:39;;;;;;;;;;;14.70;92.80;;;;;;5016146;28;20264;-72
2022/06/29 01:37:07;;;;;;;;;;;14.60;92.90;;;;;;5000207;28;20383;-72
2022/06/29 01:39:34;;;;;;;;;;;14.60;92.80;;;;;;5016870;28;19921;-72
2022/06/29 01:42:02;;;;;;;;;;;14.60;93.50;;;;;;5015973;28;20256;-72
2022/06/29 01:44:30;;;;;;;;;;;14.50;93.60;;;;;;5016993;28;19929;-72
2022/06/29 01:46:57;;;;;;;;;;;14.50;93.70;;;;;;4998591;28;19925;-72
2022/06/29 01:49:25;;;;;;;;;;;14.50;93.70;;;;;;4999798;28;20257;-72
2022/06/29 01:51:52;;;;;;;;;;;14.50;93.90;;;;;;5016990;28;19921;-72
2022/06/29 01:54:21;;;;;;;;;;;14.40;94.20;;;;;;4998587;28;19921;-72
2022/06/29 01:56:48;;;;;;;;;;;14.40;94.30;;;;;;4999687;28;20267;-72
2022/06/29 01:59:16;;;;;;;;;;;14.40;94.70;;;;;;5016764;28;20344;-72
2022/06/29 02:01:45;;;;;;;;;;;14.40;94.70;;;;;;4998253;28;19921;-72
2022/06/29 02:04:13;;;;;;;;;;;14.40;94.70;;;;;;5016635;28;19922;-72
2022/06/29 02:06:40;;;;;;;;;;;14.40;95.00;;;;;;5015263;28;20355;-72
2022/06/29 02:09:07;;;;;;;;;;;14.50;95.20;;;;;;5000147;28;20360;-72
2022/06/29 02:11:35;;;;;;;;;;;14.40;95.30;;;;;;5016311;28;19921;-72
2022/06/29 02:14:03;;;;;;;;;;;14.50;95.00;;;;;;4998094;28;19922;-72
2022/06/29 02:16:30;;;;;;;;;;;14.50;95.30;;;;;;5031651;28;19920;-72
2022/06/29 02:18:58;;;;;;;;;;;14.60;95.40;;;;;;5036670;28;19928;-72
2022/06/29 02:21:25;;;;;;;;;;;14.60;95.30;;;;;;5033976;28;19921;-72
2022/06/29 02:23:53;;;;;;;;;;;14.60;95.20;;;;;;5036000;28;19921;-72
2022/06/29 02:26:20;;;;;;;;;;;14.70;95.30;;;;;;5035021;28;19928;-72
2022/06/29 02:28:47;;;;;;;;;;;14.70;95.50;;;;;;5035791;28;19932;-72
2022/06/29 02:36:46;;;;;;;;;;;14.80;95.40;;;;;;5036028;28;19921;-72
2022/06/29 02:39:14;;;;;;;;;;;14.80;95.60;;;;;;5035854;28;19928;-72
2022/06/29 02:41:41;;;;;;;;;;;14.90;95.80;;;;;;5034549;28;19921;-72
2022/06/29 02:44:08;;;;;;;;;;;14.90;95.90;;;;;;5034670;28;19922;-72
2022/06/29 02:46:36;;;;;;;;;;;14.90;95.70;;;;;;5034419;28;19921;-73
2022/06/29 02:49:03;;;;;;;;;;;14.90;95.90;;;;;;5036224;28;19925;-72
2022/06/29 02:51:31;;;;;;;;;;;15.00;95.70;;;;;;5035468;28;19921;-72
2022/06/29 02:53:58;;;;;;;;;;;15.00;95.70;;;;;;5034647;28;19932;-72
2022/06/29 02:56:25;;;;;;;;;;;15.00;96.10;;;;;;5035450;28;19921;-73
2022/06/29 02:58:53;;;;;;;;;;;15.00;95.90;;;;;;5035975;28;19921;-72
2022/06/29 03:01:20;;;;;;;;;;;15.10;96.10;;;;;;5034436;28;19928;-72
2022/06/29 03:03:47;;;;;;;;;;;15.10;96.20;;;;;;5035867;28;19931;-73
2022/06/29 03:06:17;;;;;;;;;;;15.00;96.00;;;;;;5034110;28;20363;-72
2022/06/29 03:08:45;;;;;;;;;;;15.00;96.30;;;;;;5035456;28;19920;-72
2022/06/29 03:11:12;;;;;;;;;;;15.00;96.40;;;;;;5034406;28;19921;-72
2022/06/29 03:13:39;;;;;;;;;;;15.00;96.40;;;;;;5034318;28;19921;-72
2022/06/29 03:16:07;;;;;;;;;;;15.10;96.50;;;;;;5020089;28;19921;-73
2022/06/29 03:18:34;;;;;;;;;;;15.10;96.60;;;;;;5015466;28;19928;-72
2022/06/29 03:21:01;;;;;;;;;;;15.00;96.60;;;;;;5014499;28;19921;-72
2022/06/29 03:23:29;;;;;;;;;;;15.10;96.50;;;;;;4998375;28;19932;-72
2022/06/29 03:25:56;;;;;;;;;;;15.10;96.60;;;;;;5015117;28;19921;-72
2022/06/29 03:28:23;;;;;;;;;;;15.10;96.60;;;;;;5014234;28;19922;-72
2022/06/29 03:30:51;;;;;;;;;;;15.10;96.80;;;;;;4998570;28;19922;-72
2022/06/29 03:33:18;;;;;;;;;;;15.10;96.90;;;;;;5014216;28;20078;-72
2022/06/29 03:35:46;;;;;;;;;;;15.20;97.10;;;;;;5015368;28;19932;-72
2022/06/29 03:38:13;;;;;;;;;;;15.20;97.20;;;;;;5015179;28;19940;-72
2022/06/29 03:40:41;;;;;;;;;;;15.20;97.20;;;;;;5014083;28;20359;-72
2022/06/29 03:43:08;;;;;;;;;;;15.20;97.30;;;;;;4997980;28;19933;-72
2022/06/29 03:45:36;;;;;;;;;;;15.10;97.30;;;;;;5016559;28;20271;-73
2022/06/29 03:48:03;;;;;;;;;;;15.20;97.40;;;;;;5018158;28;19925;-72
2022/06/29 03:50:31;;;;;;;;;;;15.60;97.50;;;;;;5018989;28;19922;-72
2022/06/29 03:52:58;;;;;;;;;;;15.20;97.50;;;;;;5001194;28;19932;-72
2022/06/29 03:55:25;;;;;;;;;;;15.20;97.70;;;;;;5019866;28;19921;-72
2022/06/29 03:57:53;;;;;;;;;;;15.20;97.80;;;;;;5001750;28;19932;-72
2022/06/29 04:00:21;;;;;;;;;;;15.20;98.00;;;;;;5017954;28;20264;-72
2022/06/29 04:02:48;;;;;;;;;;;15.20;97.90;;;;;;4985788;28;20382;-73
2022/06/29 04:05:19;;;;;;;;;;;15.20;98.20;;;;;;5019075;28;19921;-72
2022/06/29 04:07:49;;;;;;;;;;;15.10;98.30;;;;;;5017897;28;19976;-72
2022/06/29 04:10:16;;;;;;;;;;;15.10;98.30;;;;;;5018921;28;20320;-72
2022/06/29 04:12:44;;;;;;;;;;;15.10;98.20;;;;;;5001671;28;19921;-72
2022/06/29 04:15:11;;;;;;;;;;;15.10;98.50;;;;;;5017417;28;20360;-72
2022/06/29 04:17:39;;;;;;;;;;;15.10;98.60;;;;;;5018767;28;19921;-72
2022/06/29 04:20:06;;;;;;;;;;;15.20;98.40;;;;;;5017321;28;19921;-72
2022/06/29 04:22:33;;;;;;;;;;;15.20;98.50;;;;;;5018377;28;20356;-72
2022/06/29 04:25:01;;;;;;;;;;;15.20;98.40;;;;;;5018469;28;19922;-72
2022/06/29 04:27:28;;;;;;;;;;;15.20;98.30;;;;;;5017249;28;20292;-72
2022/06/29 04:29:56;;;;;;;;;;;15.10;98.40;;;;;;5018290;28;19928;-72
2022/06/29 04:32:24;;;;;;;;;;;15.20;98.40;;;;;;5018429;28;19928;-72
2022/06/29 04:34:51;;;;;;;;;;;15.20;98.50;;;;;;5017135;28;19921;-72
2022/06/29 04:37:19;;;;;;;;;;;15.30;98.40;;;;;;5018294;28;19921;-72
2022/06/29 04:39:46;;;;;;;;;;;15.30;98.50;;;;;;5017340;28;19921;-72
2022/06/29 04:42:14;;;;;;;;;;;15.30;98.50;;;;;;5018013;28;20348;-73
2022/06/29 04:44:44;;;;;;;;;;;15.30;98.50;;;;;;5018087;28;19921;-72
2022/06/29 04:47:11;;;;;;;;;;;15.30;98.60;;;;;;5016900;28;20284;-72
2022/06/29 04:49:39;;;;;;;;;;;15.30;98.40;;;;;;5017896;28;19921;-72
2022/06/29 04:52:06;;;;;;;;;;;15.40;98.50;;;;;;5017890;28;19928;-72
2022/06/29 04:54:34;;;;;;;;;;;15.40;98.60;;;;;;4999953;28;19921;-72
2022/06/29 04:57:01;;;;;;;;;;;15.40;98.50;;;;;;5016928;28;19921;-72
2022/06/29 04:59:28;;;;;;;;;;;15.40;98.70;;;;;;5017702;28;19926;-72
2022/06/29 05:01:56;;;;;;;;;;;15.40;98.70;;;;;;5016589;28;20371;-72
2022/06/29 05:04:23;;;;;;;;;;;15.50;98.80;;;;;;5017752;28;19921;-73
2022/06/29 05:06:50;;;;;;;;;;;15.50;98.60;;;;;;5016463;28;19930;-72
2022/06/29 05:09:18;;;;;;;;;;;15.50;98.70;;;;;;5000622;28;20331;-73
2022/06/29 05:11:46;;;;;;;;;;;15.50;98.50;;;;;;5000343;28;19922;-73
2022/06/29 05:14:15;;;;;;;;;;;15.60;98.80;;;;;;5016327;28;19925;-73
2022/06/29 05:16:42;;;;;;;;;;;15.60;98.70;;;;;;5018113;28;19921;-73
2022/06/29 05:19:10;;;;;;;;;;;15.60;98.40;;;;;;5000805;28;19921;-73
2022/06/29 05:21:37;;;;;;;;;;;15.70;98.40;;;;;;4999377;28;19928;-73
2022/06/29 05:24:05;;;;;;;;;;;15.70;98.60;;;;;;5017550;28;19928;-73
2022/06/29 05:26:37;;;;;;;;;;;15.70;98.30;;;;;;5016445;28;19922;-73
2022/06/29 05:29:05;;;;;;;;;;;15.70;98.10;;;;;;5017857;28;19922;-73
2022/06/29 05:31:32;;;;;;;;;;;15.70;98.30;;;;;;5017130;28;19929;-73
2022/06/29 05:34:00;;;;;;;;;;;15.70;98.30;;;;;;5016347;28;19921;-73
2022/06/29 05:36:27;;;;;;;;;;;15.70;98.30;;;;;;5017046;28;19928;-73
2022/06/29 05:38:54;;;;;;;;;;;15.70;98.40;;;;;;4999754;28;19922;-73
2022/06/29 05:41:22;;;;;;;;;;;15.70;98.40;;;;;;4998618;28;19937;-73
2022/06/29 05:43:51;;;;;;;;;;;15.80;98.20;;;;;;5017668;28;20375;-73
2022/06/29 05:46:22;;;;;;;;;;;15.80;98.50;;;;;;4998768;28;19936;-73
2022/06/29 05:48:49;;;;;;;;;;;15.80;98.50;;;;;;4999641;28;19925;-73
2022/06/29 05:51:17;;;;;;;;;;;15.80;98.50;;;;;;5017048;28;19922;-73
2022/06/29 05:53:44;;;;;;;;;;;15.80;98.50;;;;;;5015785;28;19921;-73
2022/06/29 05:56:12;;;;;;;;;;;15.90;98.40;;;;;;5016630;28;19921;-73
2022/06/29 05:58:39;;;;;;;;;;;15.90;98.60;;;;;;5016502;28;19925;-73
2022/06/29 06:01:09;;;;;;;;;;;15.90;99.00;;;;;;4998255;28;19928;-73
2022/06/29 06:03:36;;;;;;;;;;;15.90;99.20;;;;;;5017001;28;20232;-73
2022/06/29 06:06:04;;;;;;;;;;;16.00;99.40;;;;;;5016594;28;19925;-73
2022/06/29 06:08:31;;;;;;;;;;;16.00;99.80;;;;;;5015297;28;19925;-73
2022/06/29 06:10:59;;;;;;;;;;;16.00;99.90;;;;;;5016451;28;20264;-73
2022/06/29 06:13:26;;;;;;;;;;;16.00;99.70;;;;;;5015722;28;19921;-73
2022/06/29 06:15:53;;;;;;;;;;;15.90;99.40;;;;;;5016309;28;19921;-73
2022/06/29 06:18:21;;;;;;;;;;;16.00;99.90;;;;;;5016582;28;19921;-73
2022/06/29 06:20:49;;;;;;;;;;;16.10;99.70;;;;;;4998076;28;19922;-73
2022/06/29 06:23:16;;;;;;;;;;;15.20;99.40;;;;;;5016205;28;19929;-73
2022/06/29 06:25:44;;;;;;;;;;;16.20;99.40;;;;;;5016161;28;19928;-73
2022/06/29 06:28:11;;;;;;;;;;;16.40;99.50;;;;;;5014987;28;19922;-73
2022/06/29 06:30:38;;;;;;;;;;;16.50;99.20;;;;;;4999289;28;19922;-73
2022/06/29 06:33:06;;;;;;;;;;;16.60;99.10;;;;;;5015148;28;19922;-73
2022/06/29 06:35:33;;;;;;;;;;;16.70;98.90;;;;;;4998944;28;19969;-73
2022/06/29 06:38:01;;;;;;;;;;;16.70;98.40;;;;;;5016033;28;19921;-73
2022/06/29 06:43:15;;;;;;;;;;;16.90;98.00;;;;;;5016033;28;19921;-73
2022/06/29 06:45:42;;;;;;;;;;;16.90;98.00;;;;;;4998737;28;19921;-73
2022/06/29 06:48:10;;;;;;;;;;;16.90;97.90;;;;;;4981592;28;19932;-73
2022/06/29 06:50:37;;;;;;;;;;;16.90;97.90;;;;;;5015839;28;19968;-73
2022/06/29 06:53:04;;;;;;;;;;;16.90;98.00;;;;;;4997574;28;19921;-73
2022/06/29 06:55:32;;;;;;;;;;;16.90;98.00;;;;;;5015912;28;19929;-73
2022/06/29 06:58:01;;;;;;;;;;;16.90;98.10;;;;;;5015725;28;19929;-73
2022/06/29 07:00:31;;;;;;;;;;;17.00;98.00;;;;;;4981461;28;19928;-73
2022/06/29 07:02:58;;;;;;;;;;;17.00;99.40;;;;;;4998730;28;20352;-73
2022/06/29 07:05:26;;;;;;;;;;;17.00;99.70;;;;;;4998448;28;19921;-73
2022/06/29 07:07:53;;;;;;;;;;;17.00;99.80;;;;;;4997579;28;19931;-73
2022/06/29 07:10:20;;;;;;;;;;;17.00;99.90;;;;;;5015480;28;20272;-73
2022/06/29 07:12:48;;;;;;;;;;;16.90;99.90;;;;;;5014678;28;19940;-74
2022/06/29 07:15:22;;;;;;;;;;;16.90;99.70;;;;;;5014238;28;19922;-74
2022/06/29 07:17:50;;;;;;;;;;;17.00;99.80;;;;;;5015175;28;19932;-73
2022/06/29 07:20:17;;;;;;;;;;;17.10;99.70;;;;;;5013643;28;20264;-73
2022/06/29 07:22:44;;;;;;;;;;;17.20;99.20;;;;;;4997760;28;19929;-73
2022/06/29 07:25:12;;;;;;;;;;;17.30;99.00;;;;;;5015020;28;19929;-73
2022/06/29 07:27:39;;;;;;;;;;;17.40;99.00;;;;;;5013705;28;19929;-73
2022/06/29 07:30:07;;;;;;;;;;;17.50;98.80;;;;;;5015021;28;19921;-72
2022/06/29 07:32:34;;;;;;;;;;;17.50;98.90;;;;;;5015109;28;19921;-73
2022/06/29 07:35:02;;;;;;;;;;;17.70;99.10;;;;;;5013930;28;19922;-72
2022/06/29 07:37:30;;;;;;;;;;;17.60;98.90;;;;;;5014926;28;19921;-73
2022/06/29 07:39:57;;;;;;;;;;;17.60;99.10;;;;;;4996714;28;20541;-73
2022/06/29 07:42:40;;;;;;;;;;;17.60;99.00;;;;;;5014702;28;19932;-73
2022/06/29 07:45:07;;;;;;;;;;;17.60;99.30;;;;;;5020492;28;20272;-73
2022/06/29 07:47:35;;;;;;;;;;;17.70;99.90;;;;;;5023839;28;19921;-73
2022/06/29 07:50:03;;;;;;;;;;;17.60;99.90;;;;;;5025196;28;19922;-73
2022/06/29 07:52:33;;;;;;;;;;;17.40;99.90;;;;;;5023350;28;19925;-73
2022/06/29 07:55:01;;;;;;;;;;;17.30;99.90;;;;;;5022945;28;19948;-73
2022/06/29 07:57:28;;;;;;;;;;;17.30;99.90;;;;;;5025577;28;19936;-73
2022/06/29 07:59:55;;;;;;;;;;;17.30;99.90;;;;;;5005939;28;20278;-73
2022/06/29 08:02:23;;;;;;;;;;;17.20;99.90;;;;;;5023772;28;19921;-73
2022/06/29 08:04:50;;;;;;;;;;;17.20;99.90;;;;;;5008186;28;19925;-73
2022/06/29 08:07:31;;;;;;;;;;;17.10;99.90;;;;;;5004681;28;19932;-72
2022/06/29 08:09:59;;;;;;;;;;;17.10;99.90;;;;;;5025814;28;20240;-72
2022/06/29 08:12:27;;;;;;;;;;;17.10;99.90;;;;;;5005361;28;20379;-72
2022/06/29 08:14:54;;;;;;;;;;;17.20;99.90;;;;;;5021148;28;19921;-74
2022/06/29 08:17:22;;;;;;;;;;;17.20;99.90;;;;;;5024942;28;19922;-74
2022/06/29 08:19:50;;;;;;;;;;;17.40;99.90;;;;;;5005178;28;19928;-75
2022/06/29 08:22:17;;;;;;;;;;;17.50;99.90;;;;;;5033905;28;19921;-74
2022/06/29 08:24:45;;;;;;;;;;;17.60;99.90;;;;;;5034477;28;19921;-74
2022/06/29 08:27:12;;;;;;;;;;;17.80;99.90;;;;;;5033246;28;19922;-74
2022/06/29 08:30:00;;;;;;;;;;;18.00;99.90;;;;;;5016785;28;19921;-74
2022/06/29 08:32:27;;;;;;;;;;;18.30;99.90;;;;;;5035412;28;19928;-75
2022/06/29 08:35:00;;;;;;;;;;;18.50;99.90;;;;;;5036452;28;19921;-74
2022/06/29 08:37:36;;;;;;;;;;;18.70;99.90;;;;;;5037761;28;19928;-73
2022/06/29 08:40:05;;;;;;;;;;;18.80;99.90;;;;;;5036664;28;19925;-74
2022/06/29 08:42:33;;;;;;;;;;;19.00;99.90;;;;;;5037569;28;19921;-72
2022/06/29 08:45:00;;;;;;;;;;;19.20;99.90;;;;;;5037656;28;19921;-72
2022/06/29 08:47:30;;;;;;;;;;;19.20;99.90;;;;;;5036512;28;19928;-72
2022/06/29 08:49:57;;;;;;;;;;;19.10;99.80;;;;;;5037281;28;19921;-71
2022/06/29 08:52:28;;;;;;;;;;;19.10;99.60;;;;;;5037433;28;19928;-72
2022/06/29 08:54:56;;;;;;;;;;;19.00;99.60;;;;;;5036264;28;19921;-72
2022/06/29 08:57:23;;;;;;;;;;;19.00;99.70;;;;;;5037440;28;19928;-71
2022/06/29 08:59:52;;;;;;;;;;;18.90;99.20;;;;;;5036439;28;19924;-71
2022/06/29 09:02:29;;;;;;;;;;;18.90;99.90;;;;;;5037267;28;19932;-70
2022/06/29 09:04:56;;;;;;;;;;;18.90;99.90;;;;;;5037029;28;19944;-71
2022/06/29 09:07:24;;;;;;;;;;;18.90;99.90;;;;;;5036028;28;19921;-72
2022/06/29 09:09:58;;;;;;;;;;;18.80;99.90;;;;;;5037304;28;19928;-71
2022/06/29 09:12:26;;;;;;;;;;;18.70;99.90;;;;;;5037205;28;19928;-71
2022/06/29 09:14:53;;;;;;;;;;;18.40;99.90;;;;;;5035764;28;19932;-71
2022/06/29 09:17:21;;;;;;;;;;;18.10;99.90;;;;;;5036946;28;20280;-72
2022/06/29 09:19:48;;;;;;;;;;;18.00;99.90;;;;;;5035575;28;19921;-72
2022/06/29 09:22:25;;;;;;;;;;;17.90;99.90;;;;;;5037597;28;19928;-72
2022/06/29 09:24:52;;;;;;;;;;;18.00;99.90;;;;;;5037706;28;19920;-71
2022/06/29 09:27:43;;;;;;;;;;;18.10;99.90;;;;;;5035985;28;19921;-72
2022/06/29 09:30:23;;;;;;;;;;;18.40;99.90;;;;;;5037265;28;19932;-71
2022/06/29 09:32:59;;;;;;;;;;;18.60;99.90;;;;;;5037575;28;19921;-71
2022/06/29 09:35:26;;;;;;;;;;;18.70;99.90;;;;;;5037237;28;20379;-71
2022/06/29 09:38:12;;;;;;;;;;;18.70;99.90;;;;;;5036607;28;20279;-71
2022/06/29 09:40:56;;;;;;;;;;;18.80;99.90;;;;;;5035775;28;19921;-72
2022/06/29 09:43:24;;;;;;;;;;;18.90;99.90;;;;;;5036271;28;20268;-72
2022/06/29 09:45:52;;;;;;;;;;;18.60;99.90;;;;;;5036469;28;19921;-71
2022/06/29 09:48:21;;;;;;;;;;;18.50;99.90;;;;;;5035512;28;19928;-71
2022/06/29 09:50:52;;;;;;;;;;;18.30;99.90;;;;;;5036358;28;19921;-72
2022/06/29 09:53:24;;;;;;;;;;;18.10;99.90;;;;;;5017618;28;19962;-72
2022/06/29 09:55:53;;;;;;;;;;;17.90;99.90;;;;;;5036278;28;19925;-71
2022/06/29 09:58:26;;;;;;;;;;;17.80;99.90;;;;;;5036102;28;19932;-72
2022/06/29 10:03:40;;;;;;;;;;;18.10;99.90;;;;;;5035962;28;19921;-72
2022/06/29 10:06:09;;;;;;;;;;;18.30;99.90;;;;;;5036059;28;20228;-72
2022/06/29 10:08:36;;;;;;;;;;;18.50;99.90;;;;;;5034696;28;19921;-72
2022/06/29 10:13:39;;;;;;;;;;;18.70;99.90;;;;;;5035908;28;20271;-72
2022/06/29 10:14:02;;;;;;;;;;;18.90;99.90;;;;;;5034666;28;19933;-72
2022/06/29 10:16:32;;;;;;;;;;;19.10;99.90;;;;;;5051061;28;20324;-72
2022/06/29 10:19:06;;;;;;;;;;;19.20;99.90;;;;;;5055910;28;19927;-72
2022/06/29 10:21:33;;;;;;;;;;;19.30;99.90;;;;;;5054545;28;19935;-72
2022/06/29 10:24:01;;;;;;;;;;;19.40;99.90;;;;;;5055697;28;19924;-71
2022/06/29 10:26:32;;;;;;;;;;;19.60;99.90;;;;;;5054529;28;19933;-71
2022/06/29 10:29:06;;;;;;;;;;;19.60;99.90;;;;;;5055593;28;19932;-71
2022/06/29 10:31:51;;;;;;;;;;;19.70;99.90;;;;;;5054817;28;19920;-72
2022/06/29 10:34:29;;;;;;;;;;;19.90;99.90;;;;;;5054311;28;20248;-71
2022/06/29 10:36:57;;;;;;;;;;;20.10;98.60;;;;;;5048967;28;19921;-72
2022/06/29 10:39:25;;;;;;;;;;;20.00;98.90;;;;;;5051736;28;19928;-72
2022/06/29 10:44:54;;;;;;;;;;;19.60;98.40;;;;;;5053426;28;19921;-72
2022/06/29 10:47:22;;;;;;;;;;;19.30;98.40;;;;;;5054009;28;19925;-73
2022/06/29 10:50:09;;;;;;;;;;;18.90;98.30;;;;;;5054997;28;19931;-73
2022/06/29 10:52:37;;;;;;;;;;;18.60;99.30;;;;;;5052989;28;19942;-73
2022/06/29 10:55:04;;;;;;;;;;;18.40;99.30;;;;;;5037068;28;19921;-73
2022/06/29 10:57:33;;;;;;;;;;;18.40;99.50;;;;;;5054562;28;19920;-72
2022/06/29 11:00:04;;;;;;;;;;;18.30;99.40;;;;;;5052847;28;19931;-72
2022/06/29 11:02:31;;;;;;;;;;;18.20;99.80;;;;;;5054139;28;19921;-73
2022/06/29 11:04:58;;;;;;;;;;;18.10;99.90;;;;;;5054319;28;19921;-73
2022/06/29 11:12:58;;;;;;;;;;;17.80;99.90;;;;;;5054591;28;19927;-72
2022/06/29 11:15:42;;;;;;;;;;;17.70;99.90;;;;;;5029871;28;19921;-72
2022/06/29 11:18:29;;;;;;;;;;;17.60;99.90;;;;;;4997958;28;19922;-72
2022/06/29 11:21:02;;;;;;;;;;;17.60;99.90;;;;;;5013646;28;19922;-72
2022/06/29 11:23:31;;;;;;;;;;;17.50;99.90;;;;;;5015106;28;19929;-72
2022/06/29 11:25:59;;;;;;;;;;;17.50;99.90;;;;;;5015111;28;19940;-72
2022/06/29 11:28:28;;;;;;;;;;;17.50;99.90;;;;;;4996586;28;19921;-72
2022/06/29 11:31:06;;;;;;;;;;;17.60;99.90;;;;;;5014787;28;19926;-72
2022/06/29 11:33:40;;;;;;;;;;;17.60;99.90;;;;;;4980374;28;19933;-74
2022/06/29 11:36:13;;;;;;;;;;;17.70;99.90;;;;;;4997635;28;19921;-73
2022/06/29 11:38:51;;;;;;;;;;;17.80;99.90;;;;;;5014744;28;20042;-73
2022/06/29 11:41:19;;;;;;;;;;;18.00;99.90;;;;;;5013831;28;19921;-73
2022/06/29 11:44:00;;;;;;;;;;;18.20;99.90;;;;;;5024524;28;19921;-72
2022/06/29 11:46:29;;;;;;;;;;;18.30;99.90;;;;;;5013275;28;19922;-72
2022/06/29 11:51:50;;;;;;;;;;;18.30;99.90;;;;;;5014923;28;19980;-72
2022/06/29 11:54:18;;;;;;;;;;;18.30;99.90;;;;;;5013594;28;19925;-72
2022/06/29 11:56:46;;;;;;;;;;;18.30;99.90;;;;;;5014822;28;19942;-73
2022/06/29 11:59:16;;;;;;;;;;;18.30;99.90;;;;;;5014769;28;19921;-73
2022/06/29 12:01:53;;;;;;;;;;;18.50;99.90;;;;;;5013624;28;19928;-72
2022/06/29 12:04:31;;;;;;;;;;;18.50;99.90;;;;;;4997538;28;19925;-72
2022/06/29 12:07:06;;;;;;;;;;;18.70;99.90;;;;;;4998947;28;19922;-73
2022/06/29 12:09:34;;;;;;;;;;;19.00;99.90;;;;;;5018649;28;20344;-72
2022/06/29 12:12:01;;;;;;;;;;;19.40;99.90;;;;;;5018529;28;19925;-73
2022/06/29 12:14:29;;;;;;;;;;;19.70;99.90;;;;;;5017500;28;20261;-72
2022/06/29 12:16:56;;;;;;;;;;;19.90;99.90;;;;;;5018358;28;19928;-72
2022/06/29 12:19:24;;;;;;;;;;;20.00;99.90;;;;;;5018067;28;19932;-73
2022/06/29 12:21:51;;;;;;;;;;;20.00;99.90;;;;;;5017154;28;19932;-73
2022/06/29 12:24:19;;;;;;;;;;;20.00;99.90;;;;;;5001168;28;19921;-73
2022/06/29 12:26:47;;;;;;;;;;;20.00;99.90;;;;;;4999951;28;19929;-72
2022/06/29 12:29:15;;;;;;;;;;;19.90;99.90;;;;;;5000900;28;19933;-72
2022/06/29 12:31:44;;;;;;;;;;;19.90;99.90;;;;;;5000558;28;19928;-72
2022/06/29 12:34:12;;;;;;;;;;;20.00;99.90;;;;;;5000127;28;19937;-72
2022/06/29 12:36:56;;;;;;;;;;;20.00;98.70;;;;;;5003318;28;19921;-72
2022/06/29 12:39:23;;;;;;;;;;;20.10;99.90;;;;;;5017992;28;20360;-72
2022/06/29 12:41:52;;;;;;;;;;;20.10;99.60;;;;;;5016704;28;19921;-72
2022/06/29 12:44:20;;;;;;;;;;;20.40;99.60;;;;;;5000761;28;19925;-72
2022/06/29 12:46:48;;;;;;;;;;;20.80;99.40;;;;;;5029166;28;20313;-73
2022/06/29 12:49:15;;;;;;;;;;;21.20;98.30;;;;;;5038035;28;20359;-73
2022/06/29 12:51:43;;;;;;;;;;;21.50;97.00;;;;;;5038017;28;19928;-73
2022/06/29 12:54:10;;;;;;;;;;;21.70;95.10;;;;;;5037020;28;19921;-73
2022/06/29 12:56:38;;;;;;;;;;;21.70;92.60;;;;;;5020882;28;20348;-73
2022/06/29 12:59:06;;;;;;;;;;;21.80;93.40;;;;;;5037638;28;19921;-73
2022/06/29 13:01:33;;;;;;;;;;;22.10;93.30;;;;;;5036909;28;20259;-73
2022/06/29 13:04:03;;;;;;;;;;;22.20;92.90;;;;;;5037660;28;19932;-73
2022/06/29 13:06:32;;;;;;;;;;;22.30;92.70;;;;;;5037064;28;19921;-73
2022/06/29 13:08:59;;;;;;;;;;;22.30;92.30;;;;;;5037621;28;19992;-73
2022/06/29 13:11:26;;;;;;;;;;;22.50;92.60;;;;;;5020000;28;19921;-73
2022/06/29 13:13:54;;;;;;;;;;;22.60;90.80;;;;;;5036852;28;19921;-72
2022/06/29 13:16:27;;;;;;;;;;;22.70;91.40;;;;;;5037638;28;19928;-72
2022/06/29 13:18:54;;;;;;;;;;;22.70;91.60;;;;;;5036990;28;19928;-73
2022/06/29 13:21:22;;;;;;;;;;;22.90;91.30;;;;;;5035618;28;20371;-73
2022/06/29 13:23:50;;;;;;;;;;;23.00;91.00;;;;;;5020281;28;19921;-73
2022/06/29 13:26:18;;;;;;;;;;;23.00;88.70;;;;;;5037521;28;20336;-73
2022/06/29 13:28:45;;;;;;;;;;;23.20;90.00;;;;;;5019749;28;19921;-73
2022/06/29 13:31:13;;;;;;;;;;;23.10;88.20;;;;;;5037091;28;20255;-73
2022/06/29 13:33:41;;;;;;;;;;;23.40;87.10;;;;;;5036382;28;19921;-73
2022/06/29 13:36:08;;;;;;;;;;;23.50;85.30;;;;;;5019488;28;19921;-72
2022/06/29 13:38:35;;;;;;;;;;;23.80;85.20;;;;;;5019557;28;19928;-74
2022/06/29 13:41:03;;;;;;;;;;;23.80;83.20;;;;;;5035971;28;20016;-72
2022/06/29 13:43:30;;;;;;;;;;;23.60;83.80;;;;;;5037260;28;19921;-73
2022/06/29 13:45:58;;;;;;;;;;;23.50;84.10;;;;;;5036586;28;19921;-72
2022/06/29 13:48:28;;;;;;;;;;;23.80;84.30;;;;;;5018832;28;20283;-72
2022/06/29 13:50:55;;;;;;;;;;;24.20;83.30;;;;;;5036511;28;19928;-72
2022/06/29 13:53:23;;;;;;;;;;;24.40;80.50;;;;;;5035470;28;19921;-72
2022/06/29 13:55:50;;;;;;;;;;;24.40;81.10;;;;;;5036840;28;19928;-72
2022/06/29 13:58:18;;;;;;;;;;;24.40;80.20;;;;;;5036746;28;20355;-72
2022/06/29 14:00:46;;;;;;;;;;;24.20;80.00;;;;;;5034843;28;19921;-72
2022/06/29 14:03:14;;;;;;;;;;;24.10;79.80;;;;;;5019062;28;20370;-72
2022/06/29 14:05:42;;;;;;;;;;;23.90;81.10;;;;;;5036261;28;19921;-72
2022/06/29 14:08:09;;;;;;;;;;;23.60;80.40;;;;;;5035138;28;19936;-72
2022/06/29 14:10:58;;;;;;;;;;;23.40;78.20;;;;;;5036530;28;19928;-72
2022/06/29 14:13:26;;;;;;;;;;;23.10;80.50;;;;;;5035177;28;19933;-72
2022/06/29 14:15:53;;;;;;;;;;;22.90;80.70;;;;;;5035389;28;20390;-72
2022/06/29 14:18:21;;;;;;;;;;;23.00;81.60;;;;;;5019152;28;20347;-72
2022/06/29 14:20:48;;;;;;;;;;;23.30;81.10;;;;;;5034906;28;19921;-72
2022/06/29 14:23:16;;;;;;;;;;;23.50;79.60;;;;;;5036163;28;19921;-72
2022/06/29 14:25:43;;;;;;;;;;;23.70;78.80;;;;;;5036083;28;19921;-72
2022/06/29 14:28:10;;;;;;;;;;;24.00;78.20;;;;;;5034814;28;20252;-72
2022/06/29 14:30:38;;;;;;;;;;;24.60;78.70;;;;;;5034470;28;19940;-72
2022/06/29 14:33:05;;;;;;;;;;;25.20;76.60;;;;;;5017911;28;20271;-72
2022/06/29 14:35:32;;;;;;;;;;;25.50;73.80;;;;;;5035827;28;19948;-72
2022/06/29 14:38:03;;;;;;;;;;;25.60;71.90;;;;;;5035795;28;19921;-72
2022/06/29 14:40:33;;;;;;;;;;;25.30;71.00;;;;;;5034475;28;19921;-72
2022/06/29 14:43:01;;;;;;;;;;;25.10;74.20;;;;;;5035077;28;19920;-72
2022/06/29 14:45:28;;;;;;;;;;;25.10;75.00;;;;;;5035569;28;20344;-72
2022/06/29 14:47:56;;;;;;;;;;;25.30;72.20;;;;;;5034435;28;19921;-72